Time;durP1;ratioP1;P1;durP2;ratioP2;P2;SDS_P1;SDS_P2;PMS_P1;PMS_P2;Temp;Humidity;BMP_temperature;BMP_pressure;BME280_temperature;BME280_humidity;BME280_pressure;Samples;Min_cycle;Max_cycle;Signal;HPM_P1;HPM_P2
2022/04/26 03:37:29;;;;;;;12.90;5.90;;;;;;;11.62;49.17;100000.63;117514;1185;22299;-48
2022/04/26 03:39:58;;;;;;;13.50;6.70;;;;;;;11.69;49.17;100006.08;117478;1185;23605;-47
2022/04/26 03:42:30;;;;;;;17.80;6.20;;;;;;;11.80;49.19;100005.84;117407;1184;22153;-58
2022/04/26 03:44:58;;;;;;;21.40;7.40;;;;;;;11.89;49.37;100007.39;117452;1185;24237;-47
2022/04/26 03:47:27;;;;;;;14.70;6.50;;;;;;;11.98;49.31;100012.45;117422;1179;23453;-47
2022/04/26 03:49:55;;;;;;;15.40;6.00;;;;;;;12.07;49.43;100015.77;117476;1185;22921;-59
2022/04/26 03:52:24;;;;;;;15.80;6.00;;;;;;;12.16;49.46;100018.53;117502;1183;23580;-47
2022/04/26 03:54:52;;;;;;;12.70;6.80;;;;;;;12.27;49.58;100022.67;117406;1185;24155;-47
2022/04/26 03:57:21;;;;;;;10.90;6.10;;;;;;;12.35;49.40;100023.19;117529;1183;23455;-47
2022/04/26 03:59:49;;;;;;;12.50;6.30;;;;;;;12.41;49.48;100024.44;117444;1185;21996;-47
2022/04/26 04:02:20;;;;;;;17.30;7.60;;;;;;;12.50;49.15;100024.04;117324;1186;21916;-59
2022/04/26 04:04:49;;;;;;;11.10;7.10;;;;;;;12.56;49.47;100024.08;117444;1185;22924;-47
2022/04/26 04:07:17;;;;;;;13.60;7.20;;;;;;;12.60;49.39;100024.64;117451;1179;24142;-47
2022/04/26 04:09:47;;;;;;;10.80;6.80;;;;;;;12.66;49.29;100027.48;117522;1184;21857;-47
2022/04/26 04:12:16;;;;;;;12.00;6.20;;;;;;;12.72;49.49;100031.91;117518;1185;23440;-59
2022/04/26 04:14:48;;;;;;;8.30;6.80;;;;;;;12.77;49.43;100032.49;117366;1185;23545;-47
2022/04/26 04:17:16;;;;;;;10.00;7.00;;;;;;;12.85;49.36;100034.39;117516;1184;23469;-60
2022/04/26 04:19:44;;;;;;;9.90;6.70;;;;;;;12.96;49.40;100033.05;117496;1183;24533;-59
2022/04/26 04:22:14;;;;;;;9.50;6.80;;;;;;;13.06;49.47;100031.70;117577;1185;24165;-59
2022/04/26 04:24:42;;;;;;;11.90;7.30;;;;;;;13.16;49.61;100033.89;117514;1183;23579;-59
2022/04/26 04:27:10;;;;;;;10.90;7.00;;;;;;;13.27;49.65;100036.38;117460;1179;24708;-59
2022/04/26 04:29:46;;;;;;;11.20;7.40;;;;;;;13.41;49.56;100040.77;117386;1185;24282;-59
2022/04/26 04:32:14;;;;;;;13.10;6.80;;;;;;;13.52;49.74;100042.55;117432;1184;22457;-59
2022/04/26 04:34:42;;;;;;;10.80;6.80;;;;;;;13.62;49.85;100039.80;117411;1186;23551;-60
2022/04/26 04:37:10;;;;;;;10.00;7.40;;;;;;;13.77;49.89;100044.44;117539;1185;23474;-59
2022/04/26 04:39:51;;;;;;;9.20;6.60;;;;;;;13.93;49.87;100046.06;117471;1184;23572;-48
2022/04/26 04:42:21;;;;;;;11.10;6.70;;;;;;;14.06;50.01;100046.19;117368;1184;21871;-47
2022/04/26 04:44:49;;;;;;;10.80;6.20;;;;;;;14.20;49.89;100045.39;117400;1184;21892;-48
2022/04/26 04:47:18;;;;;;;9.10;6.30;;;;;;;14.35;50.07;100045.42;117551;1185;23472;-48
2022/04/26 04:49:47;;;;;;;10.00;6.60;;;;;;;14.52;49.99;100046.63;117502;1185;23560;-48
2022/04/26 04:52:17;;;;;;;8.60;5.40;;;;;;;14.68;50.05;100044.00;117352;1184;24132;-50
2022/04/26 04:54:45;;;;;;;10.90;6.20;;;;;;;14.82;50.25;100044.73;117424;1186;21847;-58
2022/04/26 04:57:13;;;;;;;8.40;6.20;;;;;;;15.01;50.14;100049.22;117537;1184;23480;-58
2022/04/26 04:59:43;;;;;;;11.00;6.00;;;;;;;15.14;50.12;100052.63;117491;1185;23547;-57
2022/04/26 05:02:11;;;;;;;11.90;6.30;;;;;;;15.25;50.11;100052.04;117500;1184;21841;-48
2022/04/26 05:04:47;;;;;;;8.60;6.10;;;;;;;15.38;50.18;100055.99;117389;1185;22151;-57
2022/04/26 05:07:15;;;;;;;14.80;6.20;;;;;;;15.51;50.19;100063.65;117402;1185;23690;-57
2022/04/26 05:09:44;;;;;;;10.10;5.90;;;;;;;15.62;50.18;100065.55;117347;1184;23579;-57
2022/04/26 05:12:14;;;;;;;11.10;5.20;;;;;;;15.76;50.28;100069.41;117392;1185;23718;-48
2022/04/26 05:14:42;;;;;;;9.10;5.60;;;;;;;15.89;50.22;100071.94;117502;1185;22911;-48
2022/04/26 05:17:11;;;;;;;9.00;5.40;;;;;;;16.02;50.29;100068.77;117469;1186;22829;-47
2022/04/26 05:19:40;;;;;;;12.20;6.40;;;;;;;16.18;50.29;100068.34;117493;1181;22915;-57
2022/04/26 05:22:09;;;;;;;7.40;5.20;;;;;;;16.34;50.37;100063.96;117495;1184;21846;-57
2022/04/26 05:24:56;;;;;;;7.60;4.50;;;;;;;16.49;50.21;100068.67;117366;1185;22826;-49
2022/04/26 05:27:31;;;;;;;10.10;5.10;;;;;;;16.64;50.15;100070.15;117266;1185;22818;-48
2022/04/26 05:30:00;;;;;;;5.70;4.10;;;;;;;16.82;50.34;100069.74;117443;1185;22985;-48
2022/04/26 05:32:29;;;;;;;22.70;5.60;;;;;;;17.01;50.38;100065.94;117535;1183;23525;-48
2022/04/26 05:34:59;;;;;;;11.80;4.20;;;;;;;17.26;50.47;100064.14;117489;1185;23550;-57
2022/04/26 05:37:29;;;;;;;8.00;3.80;;;;;;;17.49;50.46;100061.50;117472;1185;21857;-48
2022/04/26 05:40:01;;;;;;;8.70;4.00;;;;;;;17.73;50.44;100064.66;118484;1183;23657;-48
2022/04/26 05:42:35;;;;;;;7.40;3.10;;;;;;;17.92;50.34;100060.93;117464;1184;23668;-48
2022/04/26 05:45:04;;;;;;;4.70;2.60;;;;;;;18.11;50.46;100063.96;117529;1183;23464;-56
2022/04/26 05:47:43;;;;;;;4.60;2.20;;;;;;;18.35;50.44;100062.58;117430;1185;22921;-57
2022/04/26 05:50:12;;;;;;;7.20;2.30;;;;;;;18.56;50.29;100062.45;117374;1185;21983;-56
2022/04/26 05:52:41;;;;;;;16.50;3.00;;;;;;;18.73;50.24;100063.88;117401;1184;24167;-48
2022/04/26 05:55:10;;;;;;;2.90;1.50;;;;;;;18.92;50.19;100058.48;117419;1185;21851;-48
2022/04/26 05:57:40;;;;;;;3.90;1.80;;;;;;;19.13;50.23;100063.67;117493;1184;23445;-48
2022/04/26 06:00:11;;;;;;;3.60;1.50;;;;;;;19.34;50.21;100061.45;117444;1186;21843;-56
2022/04/26 06:02:40;;;;;;;4.40;1.40;;;;;;;19.56;50.00;100063.48;117535;1182;21981;-55
2022/04/26 06:05:10;;;;;;;4.00;1.50;;;;;;;19.78;49.98;100070.81;117504;1185;24152;-48
2022/04/26 06:07:46;;;;;;;3.50;1.60;;;;;;;19.93;49.78;100072.52;117445;1185;23461;-56
2022/04/26 06:10:14;;;;;;;5.10;1.70;;;;;;;20.01;49.63;100074.76;117519;1183;24235;-48
2022/04/26 06:12:46;;;;;;;4.20;1.50;;;;;;;20.08;49.61;100074.86;117531;1185;21842;-56
2022/04/26 06:15:17;;;;;;;4.70;2.00;;;;;;;20.21;49.63;100077.20;117513;1183;24165;-56
2022/04/26 06:17:46;;;;;;;4.50;1.50;;;;;;;20.38;49.69;100079.41;117423;1183;21856;-56
2022/04/26 06:20:16;;;;;;;4.70;1.50;;;;;;;20.51;49.59;100075.62;117351;1186;24161;-48
2022/04/26 06:22:49;;;;;;;3.00;1.40;;;;;;;20.63;49.63;100077.77;117358;1185;23573;-56
2022/04/26 06:25:18;;;;;;;5.70;1.90;;;;;;;20.81;49.48;100079.23;117367;1184;21870;-56
2022/04/26 06:27:47;;;;;;;3.30;1.50;;;;;;;20.89;49.42;100077.15;117441;1185;23573;-48
2022/04/26 06:30:24;;;;;;;4.40;1.70;;;;;;;20.96;49.37;100077.81;117364;1188;24149;-48
2022/04/26 06:32:59;;;;;;;3.80;2.10;;;;;;;21.00;49.23;100078.14;117406;1185;23538;-49
2022/04/26 06:35:27;;;;;;;5.20;1.60;;;;;;;21.06;49.12;100074.88;117372;1185;23570;-48
2022/04/26 06:37:59;;;;;;;3.20;1.70;;;;;;;21.15;49.17;100075.79;117429;1184;23376;-56
2022/04/26 06:40:28;;;;;;;3.30;1.60;;;;;;;21.27;49.10;100083.05;117361;1184;23875;-48
2022/04/26 06:42:58;;;;;;;4.20;1.60;;;;;;;21.31;48.99;100082.29;117359;1182;21907;-56
2022/04/26 06:45:26;;;;;;;4.90;1.60;;;;;;;21.43;49.09;100083.67;117336;1185;24168;-57
2022/04/26 06:47:56;;;;;;;4.70;1.60;;;;;;;21.61;49.18;100082.45;117344;1184;23561;-48
2022/04/26 06:50:24;;;;;;;3.50;1.40;;;;;;;21.76;49.11;100080.92;117297;1185;23551;-56
2022/04/26 06:52:53;;;;;;;5.30;1.50;;;;;;;21.89;49.02;100081.69;117309;1184;23493;-48
2022/04/26 06:55:22;;;;;;;3.90;1.20;;;;;;;22.01;48.98;100082.52;117338;1185;23544;-56
2022/04/26 06:57:52;;;;;;;5.20;1.20;;;;;;;22.21;49.14;100080.58;117401;1185;21852;-49
2022/04/26 07:00:20;;;;;;;4.70;1.30;;;;;;;22.37;48.90;100083.25;117410;1185;24145;-48
2022/04/26 07:02:50;;;;;;;4.50;1.50;;;;;;;22.51;48.67;100085.20;117347;1185;22915;-56
2022/04/26 07:05:26;;;;;;;4.40;1.10;;;;;;;22.59;48.54;100083.29;117379;1185;21849;-49
2022/04/26 07:07:55;;;;;;;4.40;1.20;;;;;;;22.68;48.65;100090.68;117412;1185;23548;-49
2022/04/26 07:10:24;;;;;;;4.90;1.60;;;;;;;22.76;48.43;100094.09;117413;1185;22826;-48
2022/04/26 07:12:53;;;;;;;2.50;1.50;;;;;;;22.84;48.45;100093.02;117383;1185;23535;-48
2022/04/26 07:15:22;;;;;;;5.70;1.10;;;;;;;22.92;48.32;100096.97;117379;1185;21859;-48
2022/04/26 07:17:51;;;;;;;3.90;1.30;;;;;;;22.96;48.18;100102.00;117332;1183;23573;-48
2022/04/26 07:20:23;;;;;;;4.20;1.20;;;;;;;23.01;48.04;100102.98;117474;1179;23624;-56
2022/04/26 07:22:53;;;;;;;2.80;1.10;;;;;;;23.02;47.97;100103.80;117540;1183;21844;-56
2022/04/26 07:25:23;;;;;;;5.30;1.40;;;;;;;23.11;48.08;100100.84;117450;1186;23557;-56
2022/04/26 07:27:52;;;;;;;3.90;1.20;;;;;;;23.24;48.09;100098.91;117401;1185;23448;-48
2022/04/26 07:30:22;;;;;;;2.20;1.10;;;;;;;23.43;47.98;100098.31;117533;1183;23547;-48
2022/04/26 07:35:38;;;;;;;3.10;1.30;;;;;;;23.59;47.65;100104.88;117556;1183;23550;-48
2022/04/26 07:38:07;;;;;;;2.90;1.00;;;;;;;23.76;47.79;100104.39;117547;1186;23576;-56
2022/04/26 07:40:35;;;;;;;2.30;0.90;;;;;;;23.97;47.89;100107.41;117403;1185;22922;-56
2022/04/26 08:05:14;;;;;;;2.50;1.00;;;;;;;24.71;46.98;100117.37;117501;1183;23637;-57
2022/04/26 08:07:48;;;;;;;5.80;0.90;;;;;;;24.86;46.97;100118.19;117484;1183;23547;-56
2022/04/26 08:10:19;;;;;;;5.60;1.10;;;;;;;24.91;46.68;100117.84;117473;1183;22810;-58
2022/04/26 08:12:48;;;;;;;8.10;1.20;;;;;;;24.92;46.68;100121.73;117477;1184;22823;-56
2022/04/26 08:15:18;;;;;;;1.40;0.60;;;;;;;25.15;46.82;100118.52;117462;1181;22801;-56
2022/04/26 08:17:48;;;;;;;1.70;0.60;;;;;;;25.45;46.89;100117.29;117336;1184;24156;-48
2022/04/26 08:20:17;;;;;;;3.30;0.60;;;;;;;25.56;46.51;100115.50;117524;1183;23550;-48
2022/04/26 08:22:53;;;;;;;5.40;0.80;;;;;;;25.58;46.36;100118.09;117435;1185;23643;-56
2022/04/26 08:28:11;;;;;;;2.10;0.60;;;;;;;25.61;46.03;100119.46;117539;1183;22808;-49
2022/04/26 08:30:40;;;;;;;1.20;0.50;;;;;;;25.52;45.89;100118.52;117367;1185;23552;-49
2022/04/26 08:33:09;;;;;;;2.40;0.60;;;;;;;25.60;46.03;100115.39;117472;1185;23579;-49
2022/04/26 08:35:38;;;;;;;1.10;0.40;;;;;;;25.77;46.13;100115.84;117580;1183;23627;-49
2022/04/26 08:38:27;;;;;;;2.80;0.80;;;;;;;25.89;45.93;100114.00;117505;1183;23547;-49
2022/04/26 08:40:57;;;;;;;1.50;0.60;;;;;;;25.90;45.70;100115.67;117526;1183;22245;-49
2022/04/26 08:43:27;;;;;;;4.00;0.40;;;;;;;25.95;45.70;100113.30;117558;1183;21890;-49
2022/04/26 08:45:58;;;;;;;;;;;;;;;26.06;45.78;100113.35;117535;1185;22850;-49
2022/04/26 08:51:15;;;;;;;2.40;0.60;;;;;;;26.53;45.77;100105.70;117483;1181;22620;-50
2022/04/26 08:53:49;;;;;;;2.10;0.50;;;;;;;26.71;45.42;100104.42;117477;1185;21971;-50
2022/04/26 08:56:20;;;;;;;1.70;0.60;;;;;;;26.81;45.27;100107.73;117522;1181;21934;-50
2022/04/26 08:58:50;;;;;;;5.50;0.60;;;;;;;26.76;44.98;100107.77;117529;1183;22815;-49
2022/04/26 09:01:22;;;;;;;1.80;0.70;;;;;;;26.71;44.67;100112.14;117574;1183;21957;-49
2022/04/26 09:04:06;;;;;;;1.50;0.50;;;;;;;26.71;44.58;100108.39;117488;1183;22804;-49
2022/04/26 09:06:36;;;;;;;1.60;0.70;;;;;;;26.73;44.76;100102.77;117336;1181;22925;-49
2022/04/26 09:09:17;;;;;;;3.60;0.90;;;;;;;26.89;44.83;100106.88;117494;1183;22830;-49
2022/04/26 09:11:50;;;;;;;3.00;0.80;;;;;;;27.10;44.76;100110.33;117449;1183;22807;-49
2022/04/26 09:14:29;;;;;;;4.70;0.90;;;;;;;27.23;44.53;100110.27;117401;1185;23253;-50
2022/04/26 09:17:08;;;;;;;2.80;0.80;;;;;;;27.39;44.74;100108.91;117500;1180;21861;-49
2022/04/26 09:19:46;;;;;;;4.50;0.80;;;;;;;27.41;44.33;100112.84;117384;1185;21859;-50
2022/04/26 09:22:26;;;;;;;2.70;0.70;;;;;;;27.51;44.37;100113.83;117498;1183;23259;-50
2022/04/26 09:24:55;;;;;;;2.50;0.60;;;;;;;27.76;44.05;100119.53;117498;1184;23037;-49
2022/04/26 09:27:24;;;;;;;2.30;0.60;;;;;;;27.88;43.68;100114.67;117495;1183;23094;-50
2022/04/26 09:29:53;;;;;;;2.40;0.60;;;;;;;27.81;43.72;100117.34;117478;1184;23084;-49
2022/04/26 09:32:25;;;;;;;2.20;0.50;;;;;;;27.62;43.48;100119.72;117499;1183;23548;-57
2022/04/26 09:34:54;;;;;;;1.40;0.70;;;;;;;27.49;43.54;100119.90;117442;1184;21851;-49
2022/04/26 09:37:24;;;;;;;2.30;0.60;;;;;;;27.57;43.61;100119.02;117689;1185;21852;-57
2022/04/26 09:40:06;;;;;;;9.80;1.10;;;;;;;27.62;43.47;100120.25;117191;1188;23576;-57
2022/04/26 09:42:35;;;;;;;3.70;0.80;;;;;;;27.84;43.44;100123.20;117460;1181;22924;-57
2022/04/26 09:45:09;;;;;;;1.90;0.50;;;;;;;27.98;43.27;100129.16;117373;1184;23659;-49
2022/04/26 09:47:39;;;;;;;3.10;0.50;;;;;;;28.00;43.35;100123.77;117419;1185;22836;-49
2022/04/26 09:50:12;;;;;;;3.70;0.60;;;;;;;28.28;43.75;100120.87;117406;1185;22927;-50
2022/04/26 09:52:40;;;;;;;2.50;0.90;;;;;;;28.70;43.58;100121.05;117414;1185;22053;-50
2022/04/26 09:55:13;;;;;;;2.40;0.50;;;;;;;28.83;43.13;100127.26;117398;1186;24602;-58
2022/04/26 09:57:43;;;;;;;2.40;0.90;;;;;;;28.87;43.00;100123.48;117428;1185;21857;-51
2022/04/26 10:00:12;;;;;;;2.70;0.80;;;;;;;29.04;43.12;100115.94;117434;1186;24166;-57
2022/04/26 10:02:46;;;;;;;2.80;0.60;;;;;;;29.19;43.08;100118.65;117488;1180;21908;-57
2022/04/26 10:05:15;;;;;;;2.00;0.70;;;;;;;29.42;43.13;100121.04;117405;1183;23547;-51
2022/04/26 10:07:45;;;;;;;2.40;0.50;;;;;;;29.76;43.13;100120.31;117422;1185;23564;-59
2022/04/26 10:10:14;;;;;;;2.30;0.60;;;;;;;30.15;43.02;100116.78;117507;1183;23467;-57
2022/04/26 10:13:31;;;;;;;2.40;0.50;;;;;;;30.44;42.65;100122.11;117447;1186;23634;-58
2022/04/26 10:15:33;;;;;;;0.90;0.50;;;;;;;30.34;42.05;100121.30;117378;1185;23550;-58
2022/04/26 10:18:26;;;;;;;1.70;0.40;;;;;;;30.13;41.97;100121.59;117412;1183;21851;-51
2022/04/26 10:20:57;;;;;;;3.90;0.60;;;;;;;30.02;42.01;100114.11;117442;1185;23198;-58
2022/04/26 10:23:27;;;;;;;2.50;0.50;;;;;;;30.22;42.28;100113.13;117448;1185;22994;-57
2022/04/26 10:26:23;;;;;;;4.90;0.50;;;;;;;30.43;42.12;100118.77;117510;1186;23573;-58
2022/04/26 10:28:58;;;;;;;4.20;1.00;;;;;;;30.73;41.90;100117.45;117466;1184;21857;-51
2022/04/26 10:31:35;;;;;;;2.10;0.50;;;;;;;31.10;42.12;100120.40;117587;1184;22071;-52
2022/04/26 10:34:31;;;;;;;1.70;0.60;;;;;;;31.31;41.64;100122.00;117586;1186;21848;-51
2022/04/26 10:37:00;;;;;;;4.20;0.60;;;;;;;31.43;41.63;100124.91;117461;1183;21882;-52
2022/04/26 10:39:37;;;;;;;1.50;0.40;;;;;;;31.40;41.32;100123.63;117363;1183;23557;-52
2022/04/26 10:42:15;;;;;;;1.80;0.40;;;;;;;31.36;41.17;100124.20;117340;1185;24307;-58
2022/04/26 10:44:47;;;;;;;2.30;0.60;;;;;;;31.26;40.99;100129.06;117449;1185;23573;-57
2022/04/26 10:47:19;;;;;;;1.70;0.70;;;;;;;31.07;40.71;100134.63;117360;1184;22721;-58
2022/04/26 10:49:48;;;;;;;2.70;0.50;;;;;;;31.12;41.17;100129.58;117494;1185;21905;-57
2022/04/26 10:52:22;;;;;;;2.30;0.90;;;;;;;31.36;41.04;100125.82;117511;1183;21912;-57
2022/04/26 10:54:55;;;;;;;1.40;0.50;;;;;;;31.33;40.35;100127.95;117510;1183;22830;-57
2022/04/26 10:57:47;;;;;;;1.70;0.70;;;;;;;30.94;39.89;100132.17;117449;1184;23552;-56
2022/04/26 11:00:30;;;;;;;1.90;0.80;;;;;;;30.42;39.80;100131.08;117415;1185;21917;-56
2022/04/26 11:03:04;;;;;;;1.10;0.50;;;;;;;30.07;40.00;100139.02;117480;1186;22009;-57
2022/04/26 11:05:34;;;;;;;2.30;0.50;;;;;;;30.02;39.97;100143.48;117382;1185;22921;-56
2022/04/26 11:08:04;;;;;;;1.50;0.60;;;;;;;30.03;40.05;100143.39;117471;1186;23452;-57
2022/04/26 11:13:21;;;;;;;2.00;0.50;;;;;;;30.63;40.13;100139.96;117465;1185;21910;-56
2022/04/26 11:16:13;;;;;;;3.00;0.50;;;;;;;30.81;40.16;100141.59;117499;1185;21848;-57
2022/04/26 11:18:45;;;;;;;1.50;0.50;;;;;;;30.87;39.82;100139.86;117358;1188;21922;-57
2022/04/26 11:21:13;;;;;;;1.00;0.40;;;;;;;30.98;39.73;100138.22;117389;1186;22921;-57
2022/04/26 11:29:21;;;;;;;1.50;0.40;;;;;;;31.67;39.16;100128.58;117411;1186;22636;-56
2022/04/26 11:31:50;;;;;;;1.40;0.60;;;;;;;31.39;38.95;100129.00;117497;1184;22912;-56
2022/04/26 11:34:19;;;;;;;1.10;0.50;;;;;;;30.88;38.69;100127.34;117515;1183;21854;-56
2022/04/26 11:36:50;;;;;;;5.40;0.60;;;;;;;30.56;38.50;100128.00;117631;1183;22801;-56
2022/04/26 11:39:18;;;;;;;2.40;0.50;;;;;;;30.35;38.52;100128.15;117379;1181;21868;-55
2022/04/26 11:41:46;;;;;;;0.90;0.30;;;;;;;30.19;38.59;100132.91;117546;1180;23631;-50
2022/04/26 11:44:16;;;;;;;1.30;0.40;;;;;;;29.89;38.13;100136.76;117438;1185;23551;-56
2022/04/26 11:46:59;;;;;;;1.40;0.50;;;;;;;29.48;37.93;100141.59;117496;1185;23317;-50
2022/04/26 11:49:40;;;;;;;2.30;0.50;;;;;;;29.04;37.92;100134.89;117494;1183;23634;-50
2022/04/26 11:52:09;;;;;;;2.00;0.40;;;;;;;28.90;38.25;100137.61;117442;1184;24619;-49
2022/04/26 11:54:38;;;;;;;3.10;0.60;;;;;;;28.97;38.41;100138.55;117540;1183;21839;-50
2022/04/26 11:57:07;;;;;;;1.00;0.50;;;;;;;29.07;38.31;100138.73;117576;1183;22613;-55
2022/04/26 11:59:36;;;;;;;2.10;0.80;;;;;;;29.19;38.45;100139.05;117608;1184;22403;-56
2022/04/26 12:02:05;;;;;;;1.10;0.50;;;;;;;29.26;38.26;100140.38;117375;1185;21983;-50
2022/04/26 12:04:34;;;;;;;1.10;0.50;;;;;;;29.26;38.09;100143.83;117604;1183;21828;-56
2022/04/26 12:07:03;;;;;;;1.00;0.40;;;;;;;29.08;37.86;100144.20;117593;1183;21846;-56
2022/04/26 12:09:33;;;;;;;0.50;0.40;;;;;;;28.88;37.74;100144.86;117570;1183;21846;-49
2022/04/26 12:12:05;;;;;;;0.80;0.50;;;;;;;28.79;37.66;100146.92;117374;1185;21838;-49
2022/04/26 12:14:37;;;;;;;1.70;0.40;;;;;;;28.81;37.67;100146.37;117550;1183;22912;-50
2022/04/26 12:17:19;;;;;;;0.60;0.30;;;;;;;28.78;37.70;100148.80;117555;1183;23547;-56
2022/04/26 12:19:55;;;;;;;2.30;0.60;;;;;;;28.75;37.73;100140.20;117433;1186;23556;-56
2022/04/26 12:22:28;;;;;;;1.60;0.50;;;;;;;28.74;37.55;100145.91;117382;1184;21857;-55
2022/04/26 12:24:56;;;;;;;4.40;0.60;;;;;;;28.73;37.47;100148.36;117413;1185;21842;-55
2022/04/26 12:27:26;;;;;;;4.00;1.30;;;;;;;28.71;37.40;100152.36;117515;1185;23496;-49
2022/04/26 12:29:56;;;;;;;2.30;0.80;;;;;;;28.72;37.41;100146.30;117462;1185;21859;-50
2022/04/26 12:32:26;;;;;;;0.70;0.30;;;;;;;28.87;37.36;100138.28;117488;1185;23708;-56
2022/04/26 12:34:56;;;;;;;3.40;0.60;;;;;;;29.19;37.80;100140.27;117451;1185;21855;-49
2022/04/26 12:37:29;;;;;;;0.90;0.60;;;;;;;29.44;37.53;100137.80;117537;1184;21852;-49
2022/04/26 12:40:08;;;;;;;1.20;0.40;;;;;;;29.55;37.44;100137.73;117430;1185;21858;-50
2022/04/26 12:42:45;;;;;;;1.00;0.50;;;;;;;29.52;37.23;100134.70;117310;1185;23550;-49
2022/04/26 12:45:24;;;;;;;1.30;0.50;;;;;;;29.34;36.82;100136.54;117468;1186;23643;-49
2022/04/26 12:50:55;;;;;;;2.90;0.70;;;;;;;28.97;36.94;100144.23;118355;1184;22799;-49
2022/04/26 12:53:28;;;;;;;9.80;1.00;;;;;;;28.98;36.79;100142.63;117576;1183;22305;-56
2022/04/26 12:56:05;;;;;;;2.50;0.50;;;;;;;28.76;36.45;100141.23;117478;1184;23248;-56
2022/04/26 12:58:36;;;;;;;1.80;0.50;;;;;;;28.48;36.37;100139.98;117481;1185;23548;-55
2022/04/26 13:01:10;;;;;;;2.10;0.50;;;;;;;28.18;36.47;100139.25;117452;1183;23545;-55
2022/04/26 13:03:39;;;;;;;3.50;0.70;;;;;;;27.97;36.31;100134.85;117423;1185;21851;-55
2022/04/26 13:06:16;;;;;;;3.30;0.60;;;;;;;27.84;36.20;100134.89;117412;1184;22797;-55
2022/04/26 13:09:05;;;;;;;3.60;0.80;;;;;;;27.55;35.99;100129.45;117401;1184;23549;-56
2022/04/26 13:11:34;;;;;;;6.00;1.30;;;;;;;27.32;36.03;100130.71;117394;1184;23547;-55
2022/04/26 13:14:02;;;;;;;1.90;0.50;;;;;;;27.18;36.13;100128.36;117465;1185;23678;-49
2022/04/26 13:16:52;;;;;;;2.40;0.50;;;;;;;27.08;36.19;100129.52;117506;1183;22815;-55
2022/04/26 13:19:21;;;;;;;3.20;1.00;;;;;;;27.01;36.01;100135.42;117386;1185;21851;-48
2022/04/26 13:21:50;;;;;;;1.00;0.60;;;;;;;26.86;35.90;100138.27;117487;1185;21872;-55
2022/04/26 13:24:25;;;;;;;3.70;0.80;;;;;;;26.71;35.94;100137.50;117399;1185;23537;-50
2022/04/26 13:26:56;;;;;;;1.40;0.60;;;;;;;26.61;35.87;100135.11;117408;1181;22706;-55
2022/04/26 13:29:24;;;;;;;2.90;0.60;;;;;;;26.69;35.96;100132.79;117413;1185;24698;-49
2022/04/26 13:31:54;;;;;;;3.70;0.90;;;;;;;27.01;36.36;100131.57;117530;1183;23634;-48
2022/04/26 13:34:22;;;;;;;0.80;0.40;;;;;;;27.40;36.49;100134.41;117448;1185;23551;-55
2022/04/26 13:37:09;;;;;;;2.10;0.50;;;;;;;27.75;36.32;100135.89;117531;1185;22921;-56
2022/04/26 13:39:38;;;;;;;0.90;0.30;;;;;;;28.03;36.32;100141.16;117461;1185;21853;-48
2022/04/26 13:42:07;;;;;;;2.00;0.60;;;;;;;28.18;36.18;100139.33;117446;1184;23024;-48
2022/04/26 13:44:36;;;;;;;0.70;0.30;;;;;;;28.10;36.10;100146.83;117478;1185;23472;-56
2022/04/26 13:47:06;;;;;;;3.50;0.50;;;;;;;28.13;36.11;100146.54;117533;1184;23015;-55
2022/04/26 13:49:35;;;;;;;1.80;0.70;;;;;;;28.17;36.12;100146.21;117376;1185;22617;-55
2022/04/26 13:52:03;;;;;;;1.00;0.40;;;;;;;28.08;35.82;100146.98;117416;1184;23547;-54
2022/04/26 13:54:32;;;;;;;1.40;0.50;;;;;;;27.83;35.57;100145.77;117458;1185;23563;-56
2022/04/26 13:57:01;;;;;;;1.60;0.80;;;;;;;27.59;35.50;100146.62;117557;1180;21911;-55
2022/04/26 13:59:32;;;;;;;3.20;0.90;;;;;;;27.56;35.74;100148.52;117399;1181;22615;-49
2022/04/26 14:02:04;;;;;;;2.20;0.70;;;;;;;27.59;35.80;100143.34;117474;1185;21857;-49
2022/04/26 14:04:33;;;;;;;2.10;0.80;;;;;;;27.53;35.41;100145.48;117455;1185;23538;-55
2022/04/26 14:07:03;;;;;;;1.80;0.70;;;;;;;27.33;35.27;100154.08;117538;1184;21904;-54
2022/04/26 14:09:32;;;;;;;4.40;0.60;;;;;;;27.09;35.17;100152.92;117439;1185;21954;-48
2022/04/26 14:12:01;;;;;;;2.30;0.70;;;;;;;26.84;35.24;100155.73;117427;1184;23475;-54
2022/04/26 14:22:56;;;;;;;2.50;0.70;;;;;;;26.16;34.93;100156.62;117485;1186;22797;-55
2022/04/26 14:25:27;;;;;;;2.70;1.30;;;;;;;26.03;35.11;100160.84;117533;1183;22823;-55
2022/04/26 14:27:55;;;;;;;2.60;0.60;;;;;;;25.92;35.19;100160.65;117527;1183;23576;-55
2022/04/26 14:30:24;;;;;;;2.10;0.80;;;;;;;25.76;35.11;100163.19;117526;1185;22907;-55
2022/04/26 14:33:10;;;;;;;7.60;0.80;;;;;;;25.56;35.02;100166.36;117538;1183;23547;-48
2022/04/26 14:35:41;;;;;;;2.00;0.60;;;;;;;25.40;34.87;100169.53;117590;1183;22620;-48
2022/04/26 14:38:10;;;;;;;3.00;1.00;;;;;;;25.34;34.92;100168.42;117513;1183;22908;-55
2022/04/26 14:40:38;;;;;;;5.90;1.10;;;;;;;25.37;35.00;100169.08;117531;1183;23576;-48
2022/04/26 14:43:09;;;;;;;2.00;0.80;;;;;;;25.47;35.04;100167.05;117378;1186;23543;-55
2022/04/26 14:45:44;;;;;;;4.00;0.80;;;;;;;25.62;35.13;100166.95;117636;1183;23006;-48
2022/04/26 14:48:16;;;;;;;4.50;0.90;;;;;;;25.78;35.20;100166.40;117628;1184;21846;-48
2022/04/26 14:50:55;;;;;;;1.60;0.80;;;;;;;25.96;35.08;100160.36;117579;1183;23550;-48
2022/04/26 14:53:23;;;;;;;2.70;0.70;;;;;;;26.16;34.71;100161.11;117510;1186;21856;-48
2022/04/26 14:56:09;;;;;;;3.60;0.90;;;;;;;26.36;34.41;100160.53;117567;1183;23640;-57
2022/04/26 14:59:00;;;;;;;2.90;0.70;;;;;;;26.52;34.39;100161.73;117618;1174;24311;-56
2022/04/26 15:01:36;;;;;;;4.80;0.60;;;;;;;26.63;34.64;100164.99;117609;1185;22802;-56
2022/04/26 15:04:05;;;;;;;2.40;0.50;;;;;;;26.74;34.57;100168.77;117556;1183;23566;-56
2022/04/26 15:06:33;;;;;;;1.50;0.50;;;;;;;26.79;34.65;100171.42;117677;1183;21848;-57
2022/04/26 15:17:31;;;;;;;0.90;0.40;;;;;;;26.64;34.10;100178.75;117616;1183;23547;-49
2022/04/26 15:20:02;;;;;;;1.70;0.50;;;;;;;26.59;33.75;100182.00;117512;1183;23572;-50
2022/04/26 15:22:32;;;;;;;1.70;0.40;;;;;;;26.54;34.11;100180.41;117461;1185;21850;-50
2022/04/26 15:25:09;;;;;;;4.30;0.40;;;;;;;26.44;34.17;100181.97;117402;1185;23560;-49
2022/04/26 15:27:40;;;;;;;1.00;0.50;;;;;;;26.34;34.16;100185.13;117516;1183;23556;-49
2022/04/26 15:30:11;;;;;;;1.70;0.60;;;;;;;26.30;34.08;100185.68;117425;1185;24156;-56
2022/04/26 15:32:39;;;;;;;1.40;0.40;;;;;;;26.25;34.18;100191.06;117435;1186;21887;-50
2022/04/26 15:35:09;;;;;;;4.10;0.50;;;;;;;26.21;34.17;100189.77;117568;1183;23589;-50
2022/04/26 15:37:39;;;;;;;2.60;0.60;;;;;;;26.16;33.94;100189.71;117609;1183;23542;-49
2022/04/26 15:40:08;;;;;;;1.50;0.70;;;;;;;26.12;33.98;100192.87;117536;1185;23668;-49
2022/04/26 15:42:36;;;;;;;12.90;1.40;;;;;;;26.09;33.85;100193.11;117609;1183;21914;-56
2022/04/26 15:45:06;;;;;;;4.30;0.80;;;;;;;26.02;33.92;100194.90;117525;1183;21848;-56
2022/04/26 15:47:37;;;;;;;6.70;1.20;;;;;;;25.96;33.92;100195.16;117537;1185;23576;-56
2022/04/26 15:50:07;;;;;;;4.10;0.60;;;;;;;25.96;33.87;100197.52;117565;1186;23547;-56
2022/04/26 15:52:40;;;;;;;1.90;0.50;;;;;;;25.94;33.73;100202.36;117601;1185;21849;-56
2022/04/26 15:55:09;;;;;;;5.40;0.80;;;;;;;25.84;33.77;100202.80;117592;1186;21855;-56
2022/04/26 15:57:39;;;;;;;1.40;0.50;;;;;;;25.73;33.88;100212.67;117462;1185;21929;-49
2022/04/26 16:00:10;;;;;;;1.30;0.40;;;;;;;25.61;33.69;100210.89;117599;1183;22632;-49
2022/04/26 16:02:48;;;;;;;;;;;;;;;25.47;33.58;100212.70;117499;1179;23621;-57
2022/04/26 16:05:17;;;;;;;1.80;0.60;;;;;;;25.33;33.64;100215.69;117509;1183;23519;-50
2022/04/26 16:07:46;;;;;;;2.40;0.70;;;;;;;25.23;33.73;100215.91;117439;1185;23560;-49
2022/04/26 16:21:36;;;;;;;7.40;1.40;;;;;;;24.45;33.56;100235.35;117305;1185;22808;-56
2022/04/26 16:24:05;;;;;;;4.70;0.70;;;;;;;24.28;33.54;100239.91;117300;1181;21914;-56